sensor_id;sensor_type;location;lat;lon;timestamp;P1;durP1;ratioP1;P2;durP2;ratioP2
19231;SDS011;9750;48.730;10.294;2024-03-07T00:00:41;39.13;;;29.77;;
19231;SDS011;9750;48.730;10.294;2024-03-07T00:03:08;45.00;;;33.17;;
19231;SDS011;9750;48.730;10.294;2024-03-07T00:05:37;41.20;;;31.00;;
19231;SDS011;9750;48.730;10.294;2024-03-07T00:08:05;44.27;;;33.77;;
19231;SDS011;9750;48.730;10.294;2024-03-07T00:10:32;45.57;;;34.07;;
19231;SDS011;9750;48.730;10.294;2024-03-07T00:13:01;44.33;;;32.90;;
19231;SDS011;9750;48.730;10.294;2024-03-07T00:15:28;45.27;;;32.90;;
19231;SDS011;9750;48.730;10.294;2024-03-07T00:17:56;47.03;;;33.73;;
19231;SDS011;9750;48.730;10.294;2024-03-07T00:20:23;42.93;;;32.43;;
19231;SDS011;9750;48.730;10.294;2024-03-07T00:22:52;45.37;;;34.73;;
19231;SDS011;9750;48.730;10.294;2024-03-07T00:25:19;46.03;;;32.87;;
19231;SDS011;9750;48.730;10.294;2024-03-07T00:27:47;47.67;;;34.57;;
19231;SDS011;9750;48.730;10.294;2024-03-07T00:30:18;46.87;;;34.50;;
19231;SDS011;9750;48.730;10.294;2024-03-07T00:32:45;46.70;;;34.70;;
19231;SDS011;9750;48.730;10.294;2024-03-07T00:35:13;46.10;;;33.93;;
19231;SDS011;9750;48.730;10.294;2024-03-07T00:37:40;46.67;;;34.70;;
19231;SDS011;9750;48.730;10.294;2024-03-07T00:40:09;45.43;;;35.33;;
19231;SDS011;9750;48.730;10.294;2024-03-07T00:42:37;43.27;;;33.57;;
19231;SDS011;9750;48.730;10.294;2024-03-07T00:45:05;47.00;;;33.70;;
19231;SDS011;9750;48.730;10.294;2024-03-07T00:47:32;45.90;;;33.23;;
19231;SDS011;9750;48.730;10.294;2024-03-07T00:49:59;49.77;;;34.47;;
19231;SDS011;9750;48.730;10.294;2024-03-07T00:52:27;43.43;;;31.90;;
19231;SDS011;9750;48.730;10.294;2024-03-07T00:58:17;46.97;;;34.60;;
19231;SDS011;9750;48.730;10.294;2024-03-07T01:00:45;45.73;;;35.27;;
19231;SDS011;9750;48.730;10.294;2024-03-07T01:03:12;47.57;;;34.17;;
19231;SDS011;9750;48.730;10.294;2024-03-07T01:08:46;48.80;;;34.67;;
19231;SDS011;9750;48.730;10.294;2024-03-07T01:11:13;49.57;;;35.63;;
19231;SDS011;9750;48.730;10.294;2024-03-07T01:13:42;47.10;;;33.93;;
19231;SDS011;9750;48.730;10.294;2024-03-07T01:16:09;48.00;;;34.13;;
19231;SDS011;9750;48.730;10.294;2024-03-07T01:18:37;47.63;;;35.97;;
19231;SDS011;9750;48.730;10.294;2024-03-07T01:21:05;45.60;;;33.90;;
19231;SDS011;9750;48.730;10.294;2024-03-07T01:23:33;48.20;;;35.40;;
19231;SDS011;9750;48.730;10.294;2024-03-07T01:26:00;45.17;;;31.70;;
19231;SDS011;9750;48.730;10.294;2024-03-07T01:28:28;47.63;;;32.90;;
19231;SDS011;9750;48.730;10.294;2024-03-07T01:30:57;47.40;;;33.47;;
19231;SDS011;9750;48.730;10.294;2024-03-07T01:33:25;45.67;;;33.00;;
19231;SDS011;9750;48.730;10.294;2024-03-07T01:35:53;45.27;;;33.53;;
19231;SDS011;9750;48.730;10.294;2024-03-07T01:38:20;47.10;;;34.20;;
19231;SDS011;9750;48.730;10.294;2024-03-07T01:40:47;47.40;;;33.03;;
19231;SDS011;9750;48.730;10.294;2024-03-07T01:43:15;44.93;;;32.87;;
19231;SDS011;9750;48.730;10.294;2024-03-07T01:45:42;44.53;;;33.83;;
19231;SDS011;9750;48.730;10.294;2024-03-07T01:48:11;46.50;;;34.23;;
19231;SDS011;9750;48.730;10.294;2024-03-07T01:50:47;46.63;;;33.00;;
19231;SDS011;9750;48.730;10.294;2024-03-07T01:53:15;45.93;;;32.47;;
19231;SDS011;9750;48.730;10.294;2024-03-07T01:55:43;45.47;;;32.67;;
19231;SDS011;9750;48.730;10.294;2024-03-07T01:58:10;47.57;;;32.20;;
19231;SDS011;9750;48.730;10.294;2024-03-07T02:00:43;44.23;;;33.37;;
19231;SDS011;9750;48.730;10.294;2024-03-07T02:03:11;45.97;;;32.83;;
19231;SDS011;9750;48.730;10.294;2024-03-07T02:05:39;42.87;;;32.13;;
19231;SDS011;9750;48.730;10.294;2024-03-07T02:08:07;43.60;;;31.80;;
19231;SDS011;9750;48.730;10.294;2024-03-07T02:10:34;43.40;;;32.03;;
19231;SDS011;9750;48.730;10.294;2024-03-07T02:13:02;42.47;;;30.80;;
19231;SDS011;9750;48.730;10.294;2024-03-07T02:15:29;43.43;;;31.23;;
19231;SDS011;9750;48.730;10.294;2024-03-07T02:17:58;42.40;;;30.67;;
19231;SDS011;9750;48.730;10.294;2024-03-07T02:20:26;41.33;;;30.90;;
19231;SDS011;9750;48.730;10.294;2024-03-07T02:22:55;42.23;;;31.10;;
19231;SDS011;9750;48.730;10.294;2024-03-07T02:25:23;41.63;;;30.03;;
19231;SDS011;9750;48.730;10.294;2024-03-07T02:27:50;44.33;;;30.57;;
19231;SDS011;9750;48.730;10.294;2024-03-07T02:30:17;40.90;;;30.23;;
19231;SDS011;9750;48.730;10.294;2024-03-07T02:32:45;43.40;;;31.03;;
19231;SDS011;9750;48.730;10.294;2024-03-07T02:35:17;43.63;;;31.27;;
19231;SDS011;9750;48.730;10.294;2024-03-07T02:37:45;43.50;;;32.27;;
19231;SDS011;9750;48.730;10.294;2024-03-07T02:40:14;41.83;;;30.83;;
19231;SDS011;9750;48.730;10.294;2024-03-07T02:42:42;40.33;;;29.53;;
19231;SDS011;9750;48.730;10.294;2024-03-07T02:45:10;42.23;;;31.33;;
19231;SDS011;9750;48.730;10.294;2024-03-07T02:47:39;44.47;;;31.37;;
19231;SDS011;9750;48.730;10.294;2024-03-07T02:50:09;46.20;;;32.23;;
19231;SDS011;9750;48.730;10.294;2024-03-07T02:52:37;40.87;;;30.97;;
19231;SDS011;9750;48.730;10.294;2024-03-07T02:55:05;46.10;;;32.53;;
19231;SDS011;9750;48.730;10.294;2024-03-07T02:57:37;46.83;;;32.93;;
19231;SDS011;9750;48.730;10.294;2024-03-07T03:00:04;42.00;;;30.83;;
19231;SDS011;9750;48.730;10.294;2024-03-07T03:02:44;42.83;;;32.20;;
19231;SDS011;9750;48.730;10.294;2024-03-07T03:05:12;43.00;;;30.80;;
19231;SDS011;9750;48.730;10.294;2024-03-07T03:07:40;43.83;;;31.47;;
19231;SDS011;9750;48.730;10.294;2024-03-07T03:10:08;44.70;;;32.50;;
19231;SDS011;9750;48.730;10.294;2024-03-07T03:12:38;44.77;;;31.87;;
19231;SDS011;9750;48.730;10.294;2024-03-07T03:15:06;46.43;;;31.93;;
19231;SDS011;9750;48.730;10.294;2024-03-07T03:17:36;42.13;;;30.70;;
19231;SDS011;9750;48.730;10.294;2024-03-07T03:20:04;42.00;;;28.83;;
19231;SDS011;9750;48.730;10.294;2024-03-07T03:22:40;41.50;;;30.37;;
19231;SDS011;9750;48.730;10.294;2024-03-07T03:25:09;42.03;;;30.77;;
19231;SDS011;9750;48.730;10.294;2024-03-07T03:27:39;42.50;;;30.77;;
19231;SDS011;9750;48.730;10.294;2024-03-07T03:30:06;44.00;;;30.30;;
19231;SDS011;9750;48.730;10.294;2024-03-07T03:32:38;43.00;;;31.00;;
19231;SDS011;9750;48.730;10.294;2024-03-07T03:35:21;43.33;;;30.57;;
19231;SDS011;9750;48.730;10.294;2024-03-07T03:37:48;40.90;;;29.37;;
19231;SDS011;9750;48.730;10.294;2024-03-07T03:40:15;41.73;;;29.90;;
19231;SDS011;9750;48.730;10.294;2024-03-07T03:42:44;40.03;;;28.63;;
19231;SDS011;9750;48.730;10.294;2024-03-07T03:45:12;40.83;;;29.17;;
19231;SDS011;9750;48.730;10.294;2024-03-07T03:47:41;37.37;;;28.93;;
19231;SDS011;9750;48.730;10.294;2024-03-07T03:50:09;40.40;;;28.73;;
19231;SDS011;9750;48.730;10.294;2024-03-07T03:52:38;42.10;;;29.17;;
19231;SDS011;9750;48.730;10.294;2024-03-07T03:55:06;39.73;;;29.30;;
19231;SDS011;9750;48.730;10.294;2024-03-07T03:57:35;42.03;;;29.83;;
19231;SDS011;9750;48.730;10.294;2024-03-07T04:00:06;42.30;;;29.37;;
19231;SDS011;9750;48.730;10.294;2024-03-07T04:02:38;39.00;;;28.67;;
19231;SDS011;9750;48.730;10.294;2024-03-07T04:05:06;39.63;;;28.37;;
19231;SDS011;9750;48.730;10.294;2024-03-07T04:07:35;39.70;;;28.23;;
19231;SDS011;9750;48.730;10.294;2024-03-07T04:10:03;40.90;;;29.43;;
19231;SDS011;9750;48.730;10.294;2024-03-07T04:12:32;35.07;;;27.00;;
19231;SDS011;9750;48.730;10.294;2024-03-07T04:15:02;36.03;;;27.77;;
19231;SDS011;9750;48.730;10.294;2024-03-07T04:17:33;38.40;;;27.60;;
19231;SDS011;9750;48.730;10.294;2024-03-07T04:20:01;38.60;;;27.60;;
19231;SDS011;9750;48.730;10.294;2024-03-07T04:22:30;40.10;;;29.40;;
19231;SDS011;9750;48.730;10.294;2024-03-07T04:24:58;39.07;;;28.33;;
19231;SDS011;9750;48.730;10.294;2024-03-07T04:27:26;38.63;;;28.53;;
19231;SDS011;9750;48.730;10.294;2024-03-07T04:29:54;36.57;;;27.63;;
19231;SDS011;9750;48.730;10.294;2024-03-07T04:32:21;37.37;;;27.57;;
19231;SDS011;9750;48.730;10.294;2024-03-07T04:34:50;37.77;;;27.40;;
19231;SDS011;9750;48.730;10.294;2024-03-07T04:37:17;41.07;;;28.37;;
19231;SDS011;9750;48.730;10.294;2024-03-07T04:39:44;34.73;;;27.00;;
19231;SDS011;9750;48.730;10.294;2024-03-07T04:42:11;39.67;;;27.37;;
19231;SDS011;9750;48.730;10.294;2024-03-07T04:44:39;35.40;;;26.93;;
19231;SDS011;9750;48.730;10.294;2024-03-07T04:47:06;37.73;;;27.23;;
19231;SDS011;9750;48.730;10.294;2024-03-07T04:49:34;35.37;;;26.67;;
19231;SDS011;9750;48.730;10.294;2024-03-07T04:52:03;36.20;;;27.17;;
19231;SDS011;9750;48.730;10.294;2024-03-07T04:54:32;36.00;;;26.07;;
19231;SDS011;9750;48.730;10.294;2024-03-07T04:57:01;37.60;;;27.93;;
19231;SDS011;9750;48.730;10.294;2024-03-07T04:59:28;39.40;;;26.40;;
19231;SDS011;9750;48.730;10.294;2024-03-07T05:01:56;36.70;;;25.70;;
19231;SDS011;9750;48.730;10.294;2024-03-07T05:04:23;34.63;;;26.73;;
19231;SDS011;9750;48.730;10.294;2024-03-07T05:06:54;37.30;;;27.57;;
19231;SDS011;9750;48.730;10.294;2024-03-07T05:09:24;37.93;;;26.47;;
19231;SDS011;9750;48.730;10.294;2024-03-07T05:11:53;34.50;;;25.47;;
19231;SDS011;9750;48.730;10.294;2024-03-07T05:14:21;35.43;;;26.23;;
19231;SDS011;9750;48.730;10.294;2024-03-07T05:16:49;32.43;;;24.63;;
19231;SDS011;9750;48.730;10.294;2024-03-07T05:19:30;35.07;;;26.27;;
19231;SDS011;9750;48.730;10.294;2024-03-07T05:21:58;34.97;;;25.97;;
19231;SDS011;9750;48.730;10.294;2024-03-07T05:24:27;34.57;;;25.97;;
19231;SDS011;9750;48.730;10.294;2024-03-07T05:26:54;36.47;;;25.70;;
19231;SDS011;9750;48.730;10.294;2024-03-07T05:29:22;38.87;;;26.13;;
19231;SDS011;9750;48.730;10.294;2024-03-07T05:31:49;34.43;;;26.63;;
19231;SDS011;9750;48.730;10.294;2024-03-07T05:34:17;34.43;;;25.53;;
19231;SDS011;9750;48.730;10.294;2024-03-07T05:36:45;35.17;;;25.67;;
19231;SDS011;9750;48.730;10.294;2024-03-07T05:39:13;33.57;;;24.97;;
19231;SDS011;9750;48.730;10.294;2024-03-07T05:41:43;34.40;;;25.87;;
19231;SDS011;9750;48.730;10.294;2024-03-07T05:44:11;34.13;;;25.57;;
19231;SDS011;9750;48.730;10.294;2024-03-07T05:46:39;35.00;;;25.37;;
19231;SDS011;9750;48.730;10.294;2024-03-07T05:49:11;35.27;;;25.20;;
19231;SDS011;9750;48.730;10.294;2024-03-07T05:51:39;36.40;;;24.70;;
19231;SDS011;9750;48.730;10.294;2024-03-07T05:54:10;36.23;;;25.93;;
19231;SDS011;9750;48.730;10.294;2024-03-07T05:56:38;36.70;;;25.80;;
19231;SDS011;9750;48.730;10.294;2024-03-07T05:59:07;36.83;;;26.23;;
19231;SDS011;9750;48.730;10.294;2024-03-07T06:01:35;34.67;;;25.03;;
19231;SDS011;9750;48.730;10.294;2024-03-07T06:04:03;32.53;;;25.03;;
19231;SDS011;9750;48.730;10.294;2024-03-07T06:06:32;33.53;;;24.97;;
19231;SDS011;9750;48.730;10.294;2024-03-07T06:09:00;35.80;;;26.90;;
19231;SDS011;9750;48.730;10.294;2024-03-07T06:11:32;35.73;;;25.53;;
19231;SDS011;9750;48.730;10.294;2024-03-07T06:14:00;34.97;;;25.20;;
19231;SDS011;9750;48.730;10.294;2024-03-07T06:16:31;33.33;;;25.60;;
19231;SDS011;9750;48.730;10.294;2024-03-07T06:18:59;35.43;;;26.10;;
19231;SDS011;9750;48.730;10.294;2024-03-07T06:21:29;34.23;;;24.97;;
19231;SDS011;9750;48.730;10.294;2024-03-07T06:23:57;32.27;;;24.73;;
19231;SDS011;9750;48.730;10.294;2024-03-07T06:26:32;33.27;;;24.70;;
19231;SDS011;9750;48.730;10.294;2024-03-07T06:29:11;33.13;;;24.17;;
19231;SDS011;9750;48.730;10.294;2024-03-07T06:31:47;31.20;;;24.07;;
19231;SDS011;9750;48.730;10.294;2024-03-07T06:34:19;36.03;;;24.80;;
19231;SDS011;9750;48.730;10.294;2024-03-07T06:36:46;32.33;;;23.63;;
19231;SDS011;9750;48.730;10.294;2024-03-07T06:39:13;34.53;;;24.60;;
19231;SDS011;9750;48.730;10.294;2024-03-07T06:41:40;35.00;;;26.13;;
19231;SDS011;9750;48.730;10.294;2024-03-07T06:44:08;33.87;;;24.73;;
19231;SDS011;9750;48.730;10.294;2024-03-07T06:46:35;31.20;;;24.13;;
19231;SDS011;9750;48.730;10.294;2024-03-07T06:49:04;40.43;;;30.57;;
19231;SDS011;9750;48.730;10.294;2024-03-07T06:51:35;36.67;;;30.00;;
19231;SDS011;9750;48.730;10.294;2024-03-07T06:54:03;35.53;;;26.63;;
19231;SDS011;9750;48.730;10.294;2024-03-07T06:56:31;37.93;;;26.37;;
19231;SDS011;9750;48.730;10.294;2024-03-07T06:58:58;32.30;;;24.53;;
19231;SDS011;9750;48.730;10.294;2024-03-07T07:01:29;35.10;;;24.63;;
19231;SDS011;9750;48.730;10.294;2024-03-07T07:03:58;33.93;;;24.57;;
19231;SDS011;9750;48.730;10.294;2024-03-07T07:06:30;30.80;;;24.37;;
19231;SDS011;9750;48.730;10.294;2024-03-07T07:08:57;30.93;;;23.53;;
19231;SDS011;9750;48.730;10.294;2024-03-07T07:11:28;48.20;;;33.67;;
19231;SDS011;9750;48.730;10.294;2024-03-07T07:13:55;41.67;;;31.43;;
19231;SDS011;9750;48.730;10.294;2024-03-07T07:16:22;39.43;;;29.20;;
19231;SDS011;9750;48.730;10.294;2024-03-07T07:18:50;38.13;;;27.83;;
19231;SDS011;9750;48.730;10.294;2024-03-07T07:21:18;33.97;;;25.60;;
19231;SDS011;9750;48.730;10.294;2024-03-07T07:23:47;33.13;;;25.30;;
19231;SDS011;9750;48.730;10.294;2024-03-07T07:26:24;33.10;;;25.67;;
19231;SDS011;9750;48.730;10.294;2024-03-07T07:28:51;33.73;;;25.83;;
19231;SDS011;9750;48.730;10.294;2024-03-07T07:31:19;36.53;;;25.77;;
19231;SDS011;9750;48.730;10.294;2024-03-07T07:33:46;34.07;;;26.13;;
19231;SDS011;9750;48.730;10.294;2024-03-07T07:36:14;35.20;;;25.90;;
19231;SDS011;9750;48.730;10.294;2024-03-07T07:38:41;33.63;;;25.73;;
19231;SDS011;9750;48.730;10.294;2024-03-07T07:41:10;33.70;;;25.37;;
19231;SDS011;9750;48.730;10.294;2024-03-07T07:43:39;33.60;;;25.13;;
19231;SDS011;9750;48.730;10.294;2024-03-07T07:46:06;32.33;;;25.63;;
19231;SDS011;9750;48.730;10.294;2024-03-07T07:48:33;35.93;;;25.63;;
19231;SDS011;9750;48.730;10.294;2024-03-07T07:51:01;33.90;;;26.63;;
19231;SDS011;9750;48.730;10.294;2024-03-07T07:53:30;36.07;;;27.50;;
19231;SDS011;9750;48.730;10.294;2024-03-07T07:55:57;35.73;;;26.73;;
19231;SDS011;9750;48.730;10.294;2024-03-07T07:58:26;34.20;;;25.80;;
19231;SDS011;9750;48.730;10.294;2024-03-07T08:00:54;36.00;;;27.40;;
19231;SDS011;9750;48.730;10.294;2024-03-07T08:03:21;32.80;;;26.60;;
19231;SDS011;9750;48.730;10.294;2024-03-07T08:05:48;33.23;;;25.90;;
19231;SDS011;9750;48.730;10.294;2024-03-07T08:08:16;35.27;;;26.40;;
19231;SDS011;9750;48.730;10.294;2024-03-07T08:10:44;43.07;;;33.43;;
19231;SDS011;9750;48.730;10.294;2024-03-07T08:13:13;34.10;;;27.80;;
19231;SDS011;9750;48.730;10.294;2024-03-07T08:15:41;37.13;;;28.80;;
19231;SDS011;9750;48.730;10.294;2024-03-07T08:18:09;35.60;;;27.10;;
19231;SDS011;9750;48.730;10.294;2024-03-07T08:20:36;35.13;;;26.33;;
19231;SDS011;9750;48.730;10.294;2024-03-07T08:23:04;39.30;;;32.63;;
19231;SDS011;9750;48.730;10.294;2024-03-07T08:25:32;46.77;;;31.17;;
19231;SDS011;9750;48.730;10.294;2024-03-07T08:27:59;40.60;;;31.13;;
19231;SDS011;9750;48.730;10.294;2024-03-07T08:30:27;38.80;;;28.27;;
19231;SDS011;9750;48.730;10.294;2024-03-07T08:32:57;34.53;;;26.17;;
19231;SDS011;9750;48.730;10.294;2024-03-07T08:35:27;35.20;;;26.87;;
19231;SDS011;9750;48.730;10.294;2024-03-07T08:37:55;36.40;;;26.63;;
19231;SDS011;9750;48.730;10.294;2024-03-07T08:40:23;36.40;;;27.63;;
19231;SDS011;9750;48.730;10.294;2024-03-07T08:42:51;36.50;;;28.03;;
19231;SDS011;9750;48.730;10.294;2024-03-07T08:45:19;37.37;;;28.20;;
19231;SDS011;9750;48.730;10.294;2024-03-07T08:47:48;38.07;;;27.80;;
19231;SDS011;9750;48.730;10.294;2024-03-07T08:50:17;36.40;;;27.27;;
19231;SDS011;9750;48.730;10.294;2024-03-07T08:52:45;35.60;;;26.60;;
19231;SDS011;9750;48.730;10.294;2024-03-07T08:55:14;38.50;;;28.13;;
19231;SDS011;9750;48.730;10.294;2024-03-07T08:57:42;34.57;;;27.13;;
19231;SDS011;9750;48.730;10.294;2024-03-07T09:00:11;34.40;;;26.57;;
19231;SDS011;9750;48.730;10.294;2024-03-07T09:02:47;37.33;;;28.27;;
19231;SDS011;9750;48.730;10.294;2024-03-07T09:05:18;34.83;;;27.33;;
19231;SDS011;9750;48.730;10.294;2024-03-07T09:07:47;36.10;;;27.73;;
19231;SDS011;9750;48.730;10.294;2024-03-07T09:10:20;39.10;;;28.80;;
19231;SDS011;9750;48.730;10.294;2024-03-07T09:12:50;38.63;;;27.43;;
19231;SDS011;9750;48.730;10.294;2024-03-07T09:15:19;41.47;;;31.93;;
19231;SDS011;9750;48.730;10.294;2024-03-07T09:17:47;38.80;;;30.47;;
19231;SDS011;9750;48.730;10.294;2024-03-07T09:20:15;36.33;;;28.53;;
19231;SDS011;9750;48.730;10.294;2024-03-07T09:22:49;38.87;;;29.53;;
19231;SDS011;9750;48.730;10.294;2024-03-07T09:25:19;38.83;;;29.33;;
19231;SDS011;9750;48.730;10.294;2024-03-07T09:27:47;41.03;;;28.33;;
19231;SDS011;9750;48.730;10.294;2024-03-07T09:30:14;40.93;;;30.17;;
19231;SDS011;9750;48.730;10.294;2024-03-07T09:32:44;39.33;;;29.50;;
19231;SDS011;9750;48.730;10.294;2024-03-07T09:35:12;40.07;;;30.43;;
19231;SDS011;9750;48.730;10.294;2024-03-07T09:37:39;40.50;;;31.20;;
19231;SDS011;9750;48.730;10.294;2024-03-07T09:40:09;39.67;;;30.70;;
19231;SDS011;9750;48.730;10.294;2024-03-07T09:42:41;37.63;;;29.00;;
19231;SDS011;9750;48.730;10.294;2024-03-07T09:45:13;38.97;;;31.17;;
19231;SDS011;9750;48.730;10.294;2024-03-07T09:47:44;37.10;;;30.27;;
19231;SDS011;9750;48.730;10.294;2024-03-07T09:50:14;41.60;;;32.77;;
19231;SDS011;9750;48.730;10.294;2024-03-07T09:52:44;40.97;;;33.57;;
19231;SDS011;9750;48.730;10.294;2024-03-07T09:55:16;43.37;;;34.27;;
19231;SDS011;9750;48.730;10.294;2024-03-07T09:57:45;44.67;;;34.73;;
19231;SDS011;9750;48.730;10.294;2024-03-07T10:00:13;43.57;;;35.00;;
19231;SDS011;9750;48.730;10.294;2024-03-07T10:02:48;39.27;;;32.00;;
19231;SDS011;9750;48.730;10.294;2024-03-07T10:05:21;42.10;;;34.90;;
19231;SDS011;9750;48.730;10.294;2024-03-07T10:07:52;42.07;;;32.73;;
19231;SDS011;9750;48.730;10.294;2024-03-07T10:10:21;43.73;;;33.43;;
19231;SDS011;9750;48.730;10.294;2024-03-07T10:12:48;41.63;;;32.73;;
19231;SDS011;9750;48.730;10.294;2024-03-07T10:15:17;41.07;;;33.33;;
19231;SDS011;9750;48.730;10.294;2024-03-07T10:17:45;44.00;;;32.73;;
19231;SDS011;9750;48.730;10.294;2024-03-07T10:20:12;41.77;;;33.60;;
19231;SDS011;9750;48.730;10.294;2024-03-07T10:22:41;47.07;;;35.13;;
19231;SDS011;9750;48.730;10.294;2024-03-07T10:25:08;41.80;;;32.37;;
19231;SDS011;9750;48.730;10.294;2024-03-07T10:27:40;44.03;;;35.57;;
19231;SDS011;9750;48.730;10.294;2024-03-07T10:30:07;47.10;;;35.73;;
19231;SDS011;9750;48.730;10.294;2024-03-07T10:32:41;45.27;;;34.70;;
19231;SDS011;9750;48.730;10.294;2024-03-07T10:35:08;42.17;;;33.50;;
19231;SDS011;9750;48.730;10.294;2024-03-07T10:37:35;40.30;;;33.30;;
19231;SDS011;9750;48.730;10.294;2024-03-07T10:40:03;38.40;;;31.50;;
19231;SDS011;9750;48.730;10.294;2024-03-07T10:42:43;41.53;;;32.40;;
19231;SDS011;9750;48.730;10.294;2024-03-07T10:47:50;42.33;;;33.80;;
19231;SDS011;9750;48.730;10.294;2024-03-07T10:50:23;44.77;;;34.60;;
19231;SDS011;9750;48.730;10.294;2024-03-07T10:52:58;41.97;;;32.73;;
19231;SDS011;9750;48.730;10.294;2024-03-07T10:55:30;49.53;;;35.60;;
19231;SDS011;9750;48.730;10.294;2024-03-07T10:58:08;46.23;;;32.47;;
19231;SDS011;9750;48.730;10.294;2024-03-07T11:00:41;40.67;;;31.83;;
19231;SDS011;9750;48.730;10.294;2024-03-07T11:03:11;39.70;;;30.33;;
19231;SDS011;9750;48.730;10.294;2024-03-07T11:05:39;44.83;;;33.20;;
19231;SDS011;9750;48.730;10.294;2024-03-07T11:08:08;42.13;;;33.20;;
19231;SDS011;9750;48.730;10.294;2024-03-07T11:10:37;40.50;;;33.30;;
19231;SDS011;9750;48.730;10.294;2024-03-07T11:13:08;41.73;;;31.70;;
19231;SDS011;9750;48.730;10.294;2024-03-07T11:15:39;40.57;;;32.47;;
19231;SDS011;9750;48.730;10.294;2024-03-07T11:18:09;41.77;;;33.03;;
19231;SDS011;9750;48.730;10.294;2024-03-07T11:20:38;42.37;;;32.63;;
19231;SDS011;9750;48.730;10.294;2024-03-07T11:23:24;41.73;;;31.97;;
19231;SDS011;9750;48.730;10.294;2024-03-07T11:25:54;41.77;;;31.33;;
19231;SDS011;9750;48.730;10.294;2024-03-07T11:28:29;42.20;;;32.30;;
19231;SDS011;9750;48.730;10.294;2024-03-07T11:31:07;39.00;;;30.67;;
19231;SDS011;9750;48.730;10.294;2024-03-07T11:33:36;42.43;;;33.07;;
19231;SDS011;9750;48.730;10.294;2024-03-07T11:36:07;43.90;;;32.60;;
19231;SDS011;9750;48.730;10.294;2024-03-07T11:38:37;44.60;;;31.40;;
19231;SDS011;9750;48.730;10.294;2024-03-07T11:41:04;40.60;;;31.33;;
19231;SDS011;9750;48.730;10.294;2024-03-07T11:43:39;39.53;;;30.17;;
19231;SDS011;9750;48.730;10.294;2024-03-07T11:46:08;41.00;;;30.87;;
19231;SDS011;9750;48.730;10.294;2024-03-07T11:48:41;39.17;;;30.37;;
19231;SDS011;9750;48.730;10.294;2024-03-07T11:51:12;41.57;;;30.03;;
19231;SDS011;9750;48.730;10.294;2024-03-07T11:53:40;39.30;;;30.80;;
19231;SDS011;9750;48.730;10.294;2024-03-07T11:56:07;41.13;;;30.30;;
19231;SDS011;9750;48.730;10.294;2024-03-07T11:58:43;39.77;;;30.27;;
19231;SDS011;9750;48.730;10.294;2024-03-07T12:01:17;39.70;;;29.27;;
19231;SDS011;9750;48.730;10.294;2024-03-07T12:03:48;42.50;;;30.87;;
19231;SDS011;9750;48.730;10.294;2024-03-07T12:06:18;35.50;;;27.87;;
19231;SDS011;9750;48.730;10.294;2024-03-07T12:08:46;39.20;;;29.27;;
19231;SDS011;9750;48.730;10.294;2024-03-07T12:11:14;36.97;;;28.30;;
19231;SDS011;9750;48.730;10.294;2024-03-07T12:13:43;35.33;;;27.57;;
19231;SDS011;9750;48.730;10.294;2024-03-07T12:16:10;35.53;;;28.83;;
19231;SDS011;9750;48.730;10.294;2024-03-07T12:18:38;35.40;;;28.20;;
19231;SDS011;9750;48.730;10.294;2024-03-07T12:21:08;39.20;;;29.93;;
19231;SDS011;9750;48.730;10.294;2024-03-07T12:23:37;35.20;;;27.60;;
19231;SDS011;9750;48.730;10.294;2024-03-07T12:26:05;36.17;;;28.13;;
19231;SDS011;9750;48.730;10.294;2024-03-07T12:28:32;41.17;;;28.70;;
19231;SDS011;9750;48.730;10.294;2024-03-07T12:34:14;36.40;;;28.93;;
19231;SDS011;9750;48.730;10.294;2024-03-07T12:36:54;43.80;;;31.67;;
19231;SDS011;9750;48.730;10.294;2024-03-07T12:39:41;42.77;;;30.03;;
19231;SDS011;9750;48.730;10.294;2024-03-07T12:42:13;35.30;;;28.57;;
19231;SDS011;9750;48.730;10.294;2024-03-07T12:47:47;35.80;;;27.50;;
19231;SDS011;9750;48.730;10.294;2024-03-07T12:50:17;36.33;;;26.87;;
19231;SDS011;9750;48.730;10.294;2024-03-07T12:52:46;35.27;;;28.03;;
19231;SDS011;9750;48.730;10.294;2024-03-07T12:55:17;40.80;;;29.77;;
19231;SDS011;9750;48.730;10.294;2024-03-07T12:57:46;38.37;;;29.13;;
19231;SDS011;9750;48.730;10.294;2024-03-07T13:00:15;39.77;;;29.43;;
19231;SDS011;9750;48.730;10.294;2024-03-07T13:02:50;37.30;;;28.87;;
19231;SDS011;9750;48.730;10.294;2024-03-07T13:05:17;41.87;;;28.83;;
19231;SDS011;9750;48.730;10.294;2024-03-07T13:07:47;36.07;;;28.83;;
19231;SDS011;9750;48.730;10.294;2024-03-07T13:10:15;37.30;;;29.93;;
19231;SDS011;9750;48.730;10.294;2024-03-07T13:12:45;42.00;;;29.77;;
19231;SDS011;9750;48.730;10.294;2024-03-07T13:15:14;35.93;;;27.30;;
19231;SDS011;9750;48.730;10.294;2024-03-07T13:17:41;37.70;;;27.57;;
19231;SDS011;9750;48.730;10.294;2024-03-07T13:20:11;34.47;;;27.57;;
19231;SDS011;9750;48.730;10.294;2024-03-07T13:22:40;32.77;;;27.17;;
19231;SDS011;9750;48.730;10.294;2024-03-07T13:25:09;35.13;;;28.00;;
19231;SDS011;9750;48.730;10.294;2024-03-07T13:27:43;38.63;;;30.70;;
19231;SDS011;9750;48.730;10.294;2024-03-07T13:30:20;34.10;;;28.03;;
19231;SDS011;9750;48.730;10.294;2024-03-07T13:32:52;35.93;;;28.03;;
19231;SDS011;9750;48.730;10.294;2024-03-07T13:35:22;33.90;;;27.50;;
19231;SDS011;9750;48.730;10.294;2024-03-07T13:37:51;33.47;;;27.17;;
19231;SDS011;9750;48.730;10.294;2024-03-07T13:40:20;33.57;;;25.60;;
19231;SDS011;9750;48.730;10.294;2024-03-07T13:42:51;33.77;;;27.67;;
19231;SDS011;9750;48.730;10.294;2024-03-07T13:45:20;34.73;;;27.60;;
19231;SDS011;9750;48.730;10.294;2024-03-07T13:47:48;34.73;;;27.43;;
19231;SDS011;9750;48.730;10.294;2024-03-07T13:50:19;36.47;;;28.00;;
19231;SDS011;9750;48.730;10.294;2024-03-07T13:52:50;36.13;;;26.97;;
19231;SDS011;9750;48.730;10.294;2024-03-07T13:55:40;33.33;;;27.63;;
19231;SDS011;9750;48.730;10.294;2024-03-07T13:58:20;35.00;;;27.33;;
19231;SDS011;9750;48.730;10.294;2024-03-07T14:01:12;33.80;;;27.13;;
19231;SDS011;9750;48.730;10.294;2024-03-07T14:07:20;35.13;;;27.87;;
19231;SDS011;9750;48.730;10.294;2024-03-07T14:10:33;33.87;;;27.87;;
19231;SDS011;9750;48.730;10.294;2024-03-07T14:13:32;34.03;;;27.47;;
19231;SDS011;9750;48.730;10.294;2024-03-07T14:19:21;38.27;;;30.77;;
19231;SDS011;9750;48.730;10.294;2024-03-07T14:22:27;36.10;;;28.67;;
19231;SDS011;9750;48.730;10.294;2024-03-07T14:28:17;37.53;;;30.33;;
19231;SDS011;9750;48.730;10.294;2024-03-07T14:31:00;37.47;;;29.37;;
19231;SDS011;9750;48.730;10.294;2024-03-07T14:33:35;33.60;;;26.90;;
19231;SDS011;9750;48.730;10.294;2024-03-07T14:36:16;33.10;;;26.87;;
19231;SDS011;9750;48.730;10.294;2024-03-07T14:38:46;30.83;;;24.90;;
19231;SDS011;9750;48.730;10.294;2024-03-07T14:41:15;31.70;;;23.63;;
19231;SDS011;9750;48.730;10.294;2024-03-07T14:43:47;32.53;;;24.67;;
19231;SDS011;9750;48.730;10.294;2024-03-07T14:49:05;31.43;;;22.93;;
19231;SDS011;9750;48.730;10.294;2024-03-07T14:51:53;33.23;;;24.40;;
19231;SDS011;9750;48.730;10.294;2024-03-07T14:54:37;31.07;;;22.93;;
19231;SDS011;9750;48.730;10.294;2024-03-07T14:57:35;36.23;;;27.50;;
19231;SDS011;9750;48.730;10.294;2024-03-07T15:00:19;29.23;;;24.30;;
19231;SDS011;9750;48.730;10.294;2024-03-07T15:03:12;33.23;;;27.10;;
19231;SDS011;9750;48.730;10.294;2024-03-07T15:06:13;27.07;;;22.87;;